Terminal Aerodrome Forecast
Issued by NWS

Home | Current Version | Previous Version | Text Only | Print | Product List | Glossary On
Versions: 1 2 3 4 5 6 7 8 9 10 11 12 13 14
853
FTAK31 PAJN 251144
TAFAWG
TAF
PAWG 251144Z 2512/2612 10011KT P6SM OVC035
     FM251500 10010KT 4SM -SN OVC018
     FM252100 08010G20KT P6SM SCT018 BKN035 BKN050
     FM260100 35010G20KT P6SM SCT035 SCT100
      AMD LTD TO CLD VIS AND WIND 2512/2515=

USA.gov is the U.S. government's official web portal to all federal, state and local government web resources and services.